Time;durP1;ratioP1;P1;durP2;ratioP2;P2;SDS_P1;SDS_P2;PMS_P1;PMS_P2;Temp;Humidity;BMP_temperature;BMP_pressure;BME280_temperature;BME280_humidity;BME280_pressure;Samples;Min_cycle;Max_cycle;Signal;HPM_P1;HPM_P2
2021/12/05 00:17:44;;;;;;;11.90;3.88;;;4.00;1.00;;;;;;5090742;28;20493;-59
2021/12/05 00:23:09;;;;;;;11.23;3.78;;;4.10;1.00;;;;;;5090070;28;20792;-59
2021/12/05 00:25:37;;;;;;;9.95;3.72;;;4.00;1.00;;;;;;5091014;28;20414;-58
2021/12/05 00:28:29;;;;;;;10.43;3.65;;;4.00;1.00;;;;;;5090968;28;20414;-59
2021/12/05 00:33:57;;;;;;;13.73;4.40;;;4.00;1.00;;;;;;5090579;28;20833;-60
2021/12/05 00:42:14;;;;;;;12.68;3.95;;;3.80;1.00;;;;;;5087242;28;20423;-59
2021/12/05 00:47:41;;;;;;;12.05;4.05;;;3.70;1.00;;;;;;5089913;28;20412;-58
2021/12/05 00:50:40;;;;;;;12.73;4.05;;;3.70;1.00;;;;;;5090148;28;20421;-59
2021/12/05 00:53:44;;;;;;;14.63;4.55;;;3.60;1.00;;;;;;5090139;28;20463;-58
2021/12/05 00:56:13;;;;;;;14.23;4.38;;;3.60;1.00;;;;;;5090129;28;20406;-59
2021/12/05 01:07:11;;;;;;;14.65;4.45;;;3.40;1.00;;;;;;5057105;28;20413;-58
2021/12/05 01:09:44;;;;;;;14.73;4.70;;;3.50;1.00;;;;;;5093733;28;20418;-59
2021/12/05 01:12:31;;;;;;;10.80;4.40;;;3.50;1.00;;;;;;5093588;28;20418;-59
2021/12/05 01:15:03;;;;;;;14.18;4.38;;;3.50;1.00;;;;;;5093878;28;20417;-59
2021/12/05 01:17:37;;;;;;;10.27;4.10;;;3.50;1.00;;;;;;5094042;28;20428;-58
2021/12/05 01:20:09;;;;;;;10.13;4.00;;;3.60;1.00;;;;;;5094113;28;20409;-58
2021/12/05 01:22:43;;;;;;;10.10;4.35;;;3.60;1.00;;;;;;5093502;28;20410;-58
2021/12/05 01:25:20;;;;;;;13.07;4.40;;;3.70;1.00;;;;;;5093565;28;20425;-59
2021/12/05 01:27:52;;;;;;;11.13;4.00;;;3.70;1.00;;;;;;5093894;28;21135;-59
2021/12/05 01:30:28;;;;;;;13.10;4.33;;;3.80;1.00;;;;;;5093759;28;20476;-57
2021/12/05 01:33:03;;;;;;;10.60;3.80;;;3.80;1.00;;;;;;5093348;28;20501;-59
2021/12/05 01:35:46;;;;;;;10.52;3.80;;;3.90;1.00;;;;;;5093571;28;20414;-58
2021/12/05 01:38:23;;;;;;;11.45;3.40;;;3.90;1.00;;;;;;5093736;28;20508;-57
2021/12/05 01:44:08;;;;;;;9.90;3.80;;;3.90;1.00;;;;;;5090429;28;20973;-59
2021/12/05 01:46:56;;;;;;;9.52;3.67;;;4.00;1.00;;;;;;5092966;28;20751;-59
2021/12/05 01:57:49;;;;;;;12.80;3.67;;;4.10;1.00;;;;;;5093123;28;20471;-59
2021/12/05 02:01:00;;;;;;;10.77;3.20;;;4.10;1.00;;;;;;5092999;28;20436;-58
2021/12/05 02:12:18;;;;;;;10.57;3.22;;;4.10;1.00;;;;;;5091844;28;20437;-59
2021/12/05 02:31:39;;;;;;;12.73;3.30;;;4.20;1.00;;;;;;5091978;28;20463;-59
2021/12/05 02:37:11;;;;;;;8.77;3.47;;;4.20;1.00;;;;;;5086671;28;20404;-59
2021/12/05 02:39:50;;;;;;;9.45;3.45;;;4.10;1.00;;;;;;5092405;28;20409;-59
2021/12/05 02:42:28;;;;;;;13.57;3.67;;;4.00;1.00;;;;;;5091863;28;20414;-59
2021/12/05 02:44:55;;;;;;;11.50;3.45;;;4.10;1.00;;;;;;5092225;28;20422;-59
2021/12/05 02:47:25;;;;;;;10.38;3.50;;;4.10;1.00;;;;;;5092262;28;20414;-59
2021/12/05 02:49:55;;;;;;;12.07;3.50;;;4.00;1.00;;;;;;5092223;28;20413;-59
2021/12/05 02:52:29;;;;;;;11.73;3.50;;;4.10;1.00;;;;;;5091604;28;20913;-59
2021/12/05 02:54:59;;;;;;;9.30;3.60;;;4.00;1.00;;;;;;5091954;28;20424;-59
2021/12/05 02:57:46;;;;;;;11.50;3.65;;;4.00;1.00;;;;;;5092292;28;20414;-59
2021/12/05 03:00:19;;;;;;;12.73;3.58;;;4.00;1.00;;;;;;5091840;28;20425;-59
2021/12/05 03:02:49;;;;;;;11.05;3.97;;;4.10;1.00;;;;;;5091780;28;20406;-59
2021/12/05 03:05:20;;;;;;;9.93;3.35;;;4.00;1.00;;;;;;5092183;28;20498;-58
2021/12/05 03:07:50;;;;;;;11.63;3.13;;;4.10;1.00;;;;;;5092038;28;20467;-57
2021/12/05 03:10:21;;;;;;;17.40;3.70;;;4.10;1.00;;;;;;5092000;28;20492;-58
2021/12/05 03:12:48;;;;;;;10.10;3.38;;;4.10;1.00;;;;;;5091350;28;20421;-58
2021/12/05 03:15:17;;;;;;;11.35;3.60;;;4.10;1.00;;;;;;5091546;28;20410;-57
2021/12/05 03:17:44;;;;;;;13.98;3.53;;;4.20;1.00;;;;;;5091612;28;20410;-58
2021/12/05 03:20:14;;;;;;;13.30;3.20;;;4.20;1.00;;;;;;5091185;28;20522;-59
2021/12/05 03:22:41;;;;;;;10.70;2.88;;;4.10;1.00;;;;;;5091075;28;20410;-59
2021/12/05 03:25:10;;;;;;;8.43;3.30;;;4.10;1.00;;;;;;5091609;28;20864;-59
2021/12/05 03:27:39;;;;;;;11.50;3.55;;;4.10;1.00;;;;;;5091456;28;20410;-59
2021/12/05 03:30:08;;;;;;;10.48;3.13;;;4.10;1.00;;;;;;5091834;28;20774;-55
2021/12/05 03:32:36;;;;;;;14.10;3.90;;;4.10;1.00;;;;;;5091535;28;20425;-55
2021/12/05 03:35:04;;;;;;;11.27;3.10;;;4.10;1.00;;;;;;5091378;28;20463;-59
2021/12/05 03:37:31;;;;;;;13.10;3.50;;;4.20;1.00;;;;;;5091399;28;20526;-59
2021/12/05 03:39:57;;;;;;;10.52;3.40;;;4.10;1.00;;;;;;5091489;28;20459;-60
2021/12/05 03:42:26;;;;;;;8.95;3.15;;;4.00;1.00;;;;;;5090927;28;20820;-58
2021/12/05 03:44:52;;;;;;;14.55;3.17;;;4.00;1.00;;;;;;5090976;28;20421;-59
2021/12/05 03:47:20;;;;;;;10.25;3.30;;;4.10;1.00;;;;;;5091279;28;21049;-59
2021/12/05 03:49:46;;;;;;;12.57;3.27;;;4.10;1.00;;;;;;5091233;28;20409;-59
2021/12/05 03:52:18;;;;;;;11.52;3.40;;;4.00;1.00;;;;;;5090771;28;20455;-58
2021/12/05 03:54:45;;;;;;;6.32;2.88;;;4.10;1.00;;;;;;5091016;28;20814;-58
2021/12/05 03:57:13;;;;;;;11.03;3.53;;;4.00;1.00;;;;;;5091617;28;20410;-59
2021/12/05 03:59:41;;;;;;;12.63;3.10;;;4.00;1.00;;;;;;5090826;28;20836;-58
2021/12/05 04:02:09;;;;;;;10.17;2.77;;;4.00;1.00;;;;;;5090974;28;20406;-59
2021/12/05 04:04:36;;;;;;;11.40;2.92;;;4.00;1.00;;;;;;5090867;28;20903;-59
2021/12/05 04:07:04;;;;;;;9.48;2.90;;;3.90;1.00;;;;;;5091220;28;20801;-58
2021/12/05 04:09:31;;;;;;;12.30;3.20;;;3.90;1.00;;;;;;5090738;28;20456;-57
2021/12/05 04:12:02;;;;;;;10.18;3.20;;;3.90;1.00;;;;;;5090382;28;20417;-59
2021/12/05 04:14:33;;;;;;;12.32;3.13;;;3.90;1.00;;;;;;5090720;28;20482;-59
2021/12/05 04:17:03;;;;;;;9.20;3.00;;;3.90;1.00;;;;;;5090973;28;20479;-58
2021/12/05 04:19:30;;;;;;;9.07;2.87;;;3.90;1.00;;;;;;5090813;28;20410;-57
2021/12/05 04:21:57;;;;;;;12.85;2.83;;;3.80;1.00;;;;;;5090566;28;20409;-59
2021/12/05 04:24:24;;;;;;;10.57;2.92;;;3.90;1.00;;;;;;5090697;28;20409;-58
2021/12/05 04:26:52;;;;;;;9.03;2.60;;;3.90;1.00;;;;;;5090288;28;20421;-59
2021/12/05 04:29:19;;;;;;;11.13;2.83;;;3.80;1.00;;;;;;5090672;28;20414;-59
2021/12/05 04:31:47;;;;;;;9.95;3.05;;;3.90;1.00;;;;;;5091354;28;20820;-59
2021/12/05 04:34:15;;;;;;;12.25;2.67;;;3.90;1.00;;;;;;5094527;28;20501;-56
2021/12/05 04:36:43;;;;;;;10.60;2.60;;;3.80;1.00;;;;;;5094662;28;20965;-59
2021/12/05 04:39:11;;;;;;;9.32;3.08;;;3.90;1.00;;;;;;5094280;28;20813;-59
2021/12/05 04:41:39;;;;;;;8.93;2.65;;;3.90;1.00;;;;;;5094438;28;20401;-59
2021/12/05 04:44:07;;;;;;;12.07;3.17;;;3.90;1.00;;;;;;5094468;28;20813;-59
2021/12/05 04:46:34;;;;;;;7.82;2.25;;;3.90;1.00;;;;;;5094465;28;20828;-59
2021/12/05 04:49:01;;;;;;;12.10;2.72;;;3.90;1.00;;;;;;5094462;28;20824;-58
2021/12/05 04:51:32;;;;;;;10.35;2.28;;;3.80;1.00;;;;;;5094100;28;20421;-59
2021/12/05 04:54:00;;;;;;;8.73;2.33;;;3.90;1.00;;;;;;5094307;28;20757;-58
2021/12/05 04:56:28;;;;;;;10.05;3.17;;;3.80;1.00;;;;;;5094197;28;20951;-59
2021/12/05 04:58:57;;;;;;;11.07;3.65;;;3.80;1.00;;;;;;5094355;28;20763;-58
2021/12/05 05:01:25;;;;;;;11.52;3.08;;;3.80;1.00;;;;;;5093899;28;20414;-59
2021/12/05 05:03:52;;;;;;;8.70;2.60;;;3.90;1.00;;;;;;5094080;28;20416;-59
2021/12/05 05:06:20;;;;;;;10.60;2.63;;;3.80;1.00;;;;;;5093952;28;20494;-59
2021/12/05 05:08:51;;;;;;;7.38;2.20;;;3.80;1.00;;;;;;5094149;28;20425;-58
2021/12/05 05:11:20;;;;;;;9.65;2.40;;;3.80;1.00;;;;;;5093560;28;20405;-58
2021/12/05 05:13:48;;;;;;;9.50;2.45;;;3.80;1.00;;;;;;5093886;28;20409;-58
2021/12/05 05:16:19;;;;;;;6.72;1.98;;;3.90;1.00;;;;;;5093855;28;20416;-59
2021/12/05 05:18:48;;;;;;;9.32;2.10;;;3.80;1.00;;;;;;5093871;28;20420;-59
2021/12/05 05:21:28;;;;;;;10.65;2.30;;;3.80;1.00;;;;;;5093557;28;20505;-59
2021/12/05 05:24:16;;;;;;;7.63;2.25;;;3.80;1.00;;;;;;5093796;28;20421;-58
2021/12/05 05:27:04;;;;;;;8.95;1.92;;;3.80;1.00;;;;;;5093684;28;20420;-59
2021/12/05 05:40:59;;;;;;;8.48;2.28;;;3.70;1.00;;;;;;5093523;28;20397;-59
2021/12/05 05:43:35;;;;;;;7.07;1.75;;;3.70;1.00;;;;;;5092523;28;20893;-58
2021/12/05 05:46:13;;;;;;;11.57;2.30;;;3.70;1.00;;;;;;5093335;28;20410;-57
2021/12/05 05:48:48;;;;;;;9.88;2.15;;;3.80;1.00;;;;;;5093792;28;20418;-59
2021/12/05 05:51:15;;;;;;;7.82;1.75;;;3.80;1.00;;;;;;5093226;28;20425;-58
2021/12/05 05:53:44;;;;;;;8.00;2.10;;;3.80;1.00;;;;;;5093173;28;20853;-59
2021/12/05 05:56:17;;;;;;;8.50;2.10;;;3.70;1.00;;;;;;5093397;28;20501;-59
2021/12/05 05:58:47;;;;;;;8.23;1.97;;;3.70;1.00;;;;;;5093443;28;20417;-57
2021/12/05 06:01:20;;;;;;;10.65;2.28;;;3.70;1.00;;;;;;5092736;28;20874;-59
2021/12/05 06:03:48;;;;;;;9.35;1.75;;;3.70;1.00;;;;;;5093218;28;20446;-59
2021/12/05 06:06:17;;;;;;;8.43;2.35;;;3.60;1.00;;;;;;5092907;28;20831;-59
2021/12/05 06:08:45;;;;;;;8.70;1.90;;;3.70;1.00;;;;;;5092782;28;20782;-59
2021/12/05 06:11:16;;;;;;;10.32;2.03;;;3.70;1.00;;;;;;5092316;28;20410;-59
2021/12/05 06:13:43;;;;;;;9.18;2.20;;;3.70;1.00;;;;;;5092897;28;20426;-59
2021/12/05 06:16:11;;;;;;;7.13;2.20;;;3.70;1.00;;;;;;5092750;28;20505;-59
2021/12/05 06:18:39;;;;;;;9.18;2.30;;;3.70;1.00;;;;;;5092783;28;20418;-59
2021/12/05 06:21:06;;;;;;;6.97;2.00;;;3.80;1.00;;;;;;5092402;28;20410;-59
2021/12/05 06:23:33;;;;;;;7.80;1.67;;;3.80;1.00;;;;;;5092481;28;20437;-59
2021/12/05 06:26:00;;;;;;;7.00;1.80;;;3.70;1.00;;;;;;5092790;28;20406;-59
2021/12/05 06:28:33;;;;;;;9.00;1.92;;;3.80;1.00;;;;;;5092528;28;20418;-58
2021/12/05 06:31:09;;;;;;;7.53;1.67;;;3.80;1.00;;;;;;5092537;28;20416;-59
2021/12/05 06:39:29;;;;;;;5.33;1.70;;;3.80;1.00;;;;;;5092388;28;20401;-58
2021/12/05 06:42:05;;;;;;;10.25;1.73;;;3.90;1.00;;;;;;5092342;28;20406;-58
2021/12/05 06:47:21;;;;;;;8.32;2.05;;;3.90;1.00;;;;;;5092324;28;20443;-59
2021/12/05 06:49:48;;;;;;;7.60;1.95;;;3.90;1.00;;;;;;5092211;28;20417;-59
2021/12/05 06:52:15;;;;;;;7.82;2.00;;;3.90;1.00;;;;;;5091654;28;20426;-59
2021/12/05 06:54:42;;;;;;;6.53;1.77;;;3.90;1.00;;;;;;5090876;28;20417;-59
2021/12/05 06:57:10;;;;;;;6.20;1.80;;;3.90;1.00;;;;;;5092370;28;20467;-59
2021/12/05 06:59:40;;;;;;;4.57;1.30;;;3.90;1.00;;;;;;5092282;28;20409;-59
2021/12/05 07:02:07;;;;;;;5.45;1.80;;;3.80;1.00;;;;;;5091477;28;20405;-59
2021/12/05 07:07:21;;;;;;;6.88;1.75;;;3.90;1.00;;;;;;5090882;28;20413;-58
2021/12/05 07:09:49;;;;;;;5.57;1.73;;;4.00;1.00;;;;;;5091893;28;20414;-57
2021/12/05 07:15:24;;;;;;;6.55;1.85;;;4.00;1.00;;;;;;5029451;28;20422;-57
2021/12/05 07:20:49;;;;;;;6.67;1.80;;;4.00;1.00;;;;;;5067793;28;20520;-59
2021/12/05 07:23:29;;;;;;;7.10;2.20;;;4.00;1.00;;;;;;5091182;28;20459;-58
2021/12/05 07:26:08;;;;;;;6.38;1.80;;;4.00;1.00;;;;;;5091419;28;20795;-59
2021/12/05 07:42:22;;;;;;;6.20;1.75;;;4.10;99.90;;;;;;5091011;28;20443;-59
2021/12/05 07:44:49;;;;;;;6.82;1.90;;;4.20;99.90;;;;;;5091092;28;20994;-58
2021/12/05 07:47:19;;;;;;;8.27;1.90;;;4.30;99.90;;;;;;5091260;28;20406;-57
2021/12/05 07:49:47;;;;;;;6.35;1.60;;;4.30;99.90;;;;;;5091270;28;20414;-58
2021/12/05 07:52:18;;;;;;;5.05;2.03;;;4.30;99.90;;;;;;5090622;28;20425;-57
2021/12/05 07:54:50;;;;;;;4.37;1.40;;;4.30;99.90;;;;;;5091085;28;20417;-58
2021/12/05 07:57:21;;;;;;;4.10;1.67;;;4.30;99.90;;;;;;5090873;28;20417;-59
2021/12/05 07:59:59;;;;;;;7.15;2.08;;;4.20;99.90;;;;;;5091165;28;20418;-57
2021/12/05 08:16:11;;;;;;;4.10;1.88;;;4.50;99.90;;;;;;5090885;28;20393;-58
2021/12/05 08:18:39;;;;;;;5.22;2.08;;;4.50;99.90;;;;;;5091010;28;20449;-59
2021/12/05 08:21:07;;;;;;;5.18;1.92;;;4.40;99.90;;;;;;5090599;28;20440;-59
2021/12/05 08:23:34;;;;;;;7.43;2.05;;;4.60;99.90;;;;;;5090633;28;20894;-58
2021/12/05 08:26:11;;;;;;;5.95;2.55;;;4.50;99.90;;;;;;5090606;28;20463;-58
2021/12/05 08:28:57;;;;;;;3.75;1.80;;;4.70;99.90;;;;;;5090520;28;20446;-58
2021/12/05 08:31:34;;;;;;;5.68;2.22;;;4.60;99.90;;;;;;5090428;28;20747;-59
2021/12/05 08:34:18;;;;;;;6.97;2.38;;;4.70;99.90;;;;;;5090839;28;20432;-59
2021/12/05 08:37:10;;;;;;;3.95;2.35;;;4.90;99.90;;;;;;5090364;28;20421;-58
2021/12/05 08:40:10;;;;;;;5.70;2.08;;;4.90;99.90;;;;;;5090709;28;20417;-58
2021/12/05 08:42:55;;;;;;;7.53;2.03;;;4.80;99.90;;;;;;5090115;28;20408;-59
2021/12/05 09:27:33;;;;;;;3.10;1.90;;;4.60;99.90;;;;;;5056400;28;20408;-56
2021/12/05 09:30:29;;;;;;;4.75;2.00;;;4.70;99.90;;;;;;5093600;28;20414;-58
2021/12/05 09:38:56;;;;;;;6.63;2.20;;;4.70;99.90;;;;;;5092521;28;20389;-60
2021/12/05 10:06:53;;;;;;;4.05;2.08;;;4.90;99.90;;;;;;5070969;28;20922;-57
2021/12/05 10:09:54;;;;;;;3.80;2.03;;;4.80;99.90;;;;;;5092282;28;20422;-57
2021/12/05 10:12:46;;;;;;;5.13;2.00;;;4.90;99.90;;;;;;5092011;28;20410;-57
2021/12/05 10:15:32;;;;;;;6.22;2.15;;;5.00;99.90;;;;;;5092336;28;20996;-55
2021/12/05 10:18:40;;;;;;;4.10;1.98;;;5.00;99.90;;;;;;5092572;28;20410;-57
2021/12/05 10:35:37;;;;;;;3.42;1.75;;;5.20;99.90;;;;;;5091771;28;20397;-59
2021/12/05 10:38:07;;;;;;;4.00;1.60;;;5.10;99.90;;;;;;5091904;28;20410;-59
2021/12/05 10:40:40;;;;;;;3.70;1.70;;;5.20;99.90;;;;;;5092184;28;20423;-58
2021/12/05 10:43:13;;;;;;;2.38;1.65;;;5.10;99.90;;;;;;5091914;28;20501;-58
2021/12/05 10:45:43;;;;;;;2.92;1.50;;;5.20;99.90;;;;;;5091946;28;20414;-59
2021/12/05 10:48:20;;;;;;;3.00;1.60;;;5.10;99.90;;;;;;5091808;28;20634;-59
2021/12/05 10:50:50;;;;;;;2.40;1.42;;;5.10;99.90;;;;;;5091873;28;20414;-59
2021/12/05 10:53:32;;;;;;;3.37;1.60;;;5.20;99.90;;;;;;5091345;28;20421;-59
2021/12/05 10:56:06;;;;;;;4.57;1.50;;;5.30;99.90;;;;;;5092031;28;20455;-59
2021/12/05 10:58:37;;;;;;;3.20;1.75;;;5.40;99.90;;;;;;5091511;28;20835;-60
2021/12/05 11:01:18;;;;;;;3.50;1.55;;;5.40;99.90;;;;;;5091573;28;20459;-57
2021/12/05 11:03:47;;;;;;;4.03;1.80;;;5.50;99.90;;;;;;5091446;28;20406;-58
2021/12/05 11:06:23;;;;;;;2.80;1.67;;;5.50;99.90;;;;;;5091516;28;20413;-55
2021/12/05 11:08:54;;;;;;;4.15;1.92;;;5.40;99.90;;;;;;5090961;28;20840;-57
2021/12/05 11:11:21;;;;;;;3.97;1.60;;;5.30;99.90;;;;;;5091091;28;20468;-58
2021/12/05 11:13:50;;;;;;;4.90;2.03;;;5.30;1.00;;;;;;5091293;28;20430;-55
2021/12/05 11:16:42;;;;;;;4.07;1.70;;;5.30;99.90;;;;;;5091574;28;20946;-58
2021/12/05 11:19:13;;;;;;;3.03;1.52;;;5.40;99.90;;;;;;5091074;28;20406;-58
2021/12/05 11:21:46;;;;;;;3.55;1.77;;;5.30;99.90;;;;;;5091425;28;20416;-57
2021/12/05 11:24:20;;;;;;;3.38;1.83;;;5.40;99.90;;;;;;5090981;28;20410;-56
2021/12/05 11:27:04;;;;;;;3.15;1.60;;;5.40;1.00;;;;;;5091225;28;20460;-57
2021/12/05 11:29:45;;;;;;;2.50;1.50;;;5.50;99.90;;;;;;5091341;28;20410;-57
2021/12/05 11:32:15;;;;;;;2.95;1.70;;;5.50;99.90;;;;;;5091296;28;20417;-57
2021/12/05 11:34:43;;;;;;;3.55;1.55;;;5.40;99.90;;;;;;5091298;28;20429;-57
2021/12/05 11:37:10;;;;;;;2.83;1.42;;;5.50;99.90;;;;;;5090581;28;20878;-56
2021/12/05 11:39:37;;;;;;;3.72;2.17;;;5.50;99.90;;;;;;5090914;28;20413;-57
2021/12/05 11:42:12;;;;;;;3.03;1.55;;;5.50;99.90;;;;;;5090008;28;20414;-59
2021/12/05 11:44:40;;;;;;;4.05;1.63;;;5.50;99.90;;;;;;5090905;28;20494;-60
2021/12/05 11:47:13;;;;;;;3.00;1.50;;;5.50;99.90;;;;;;5090888;28;20417;-60
2021/12/05 11:49:39;;;;;;;2.17;1.35;;;5.60;99.90;;;;;;5090855;28;20467;-60
2021/12/05 11:52:09;;;;;;;2.92;1.40;;;5.60;99.90;;;;;;5090560;28;20414;-60
2021/12/05 11:54:40;;;;;;;3.40;1.57;;;5.60;99.90;;;;;;5090470;28;20467;-60
2021/12/05 11:57:11;;;;;;;2.50;1.48;;;5.70;99.90;;;;;;5090672;28;20410;-60
2021/12/05 11:59:39;;;;;;;3.65;1.70;;;5.90;99.90;;;;;;5090864;28;20410;-61
2021/12/05 12:02:09;;;;;;;2.38;1.42;;;5.80;99.90;;;;;;5090037;28;20410;-61
2021/12/05 12:04:43;;;;;;;2.47;1.25;;;5.70;99.90;;;;;;5090506;28;20406;-60
2021/12/05 12:07:17;;;;;;;4.90;1.88;;;5.80;99.90;;;;;;5090216;28;20414;-60
2021/12/05 12:09:45;;;;;;;4.63;1.80;;;5.80;99.90;;;;;;5090545;28;20470;-58
2021/12/05 12:12:12;;;;;;;2.08;1.40;;;5.80;99.90;;;;;;5090039;28;20414;-60
2021/12/05 12:14:40;;;;;;;3.47;1.52;;;5.80;99.90;;;;;;5090553;28;20417;-60
2021/12/05 12:17:13;;;;;;;2.50;1.40;;;5.80;99.90;;;;;;5090277;28;20840;-61
2021/12/05 12:19:40;;;;;;;2.58;1.45;;;5.80;99.90;;;;;;5090265;28;20417;-60
2021/12/05 12:22:08;;;;;;;4.00;1.60;;;5.80;99.90;;;;;;5090427;28;20428;-60
2021/12/05 12:24:39;;;;;;;2.83;1.48;;;5.80;99.90;;;;;;5090436;28;20418;-60
2021/12/05 12:27:07;;;;;;;3.38;1.40;;;5.90;99.90;;;;;;5090404;28;20468;-60
2021/12/05 12:29:35;;;;;;;1.75;1.30;;;6.00;99.90;;;;;;5090297;28;20413;-60
2021/12/05 12:32:11;;;;;;;4.53;1.50;;;5.90;99.90;;;;;;5089817;28;20936;-60
2021/12/05 12:34:38;;;;;;;1.98;1.20;;;6.00;99.90;;;;;;5090409;28;20443;-61
2021/12/05 12:37:06;;;;;;;2.10;1.20;;;6.00;99.90;;;;;;5090182;28;20422;-56
2021/12/05 12:39:38;;;;;;;2.67;1.27;;;5.90;99.90;;;;;;5090248;28;20464;-56
2021/12/05 12:42:15;;;;;;;3.38;1.38;;;6.00;99.90;;;;;;5090016;28;20420;-56
2021/12/05 12:45:15;;;;;;;3.97;1.70;;;6.10;99.90;;;;;;5089993;28;20418;-58
2021/12/05 12:47:44;;;;;;;4.88;2.00;;;6.10;99.90;;;;;;5007595;28;20408;-58
2021/12/05 12:50:34;;;;;;;2.30;1.35;;;5.90;99.90;;;;;;5073721;28;20928;-57
2021/12/05 12:53:11;;;;;;;4.88;2.28;;;6.00;99.90;;;;;;5090759;28;20418;-59
2021/12/05 12:55:43;;;;;;;3.20;1.50;;;5.90;99.90;;;;;;5094129;28;20418;-60
2021/12/05 12:58:11;;;;;;;3.08;1.35;;;5.90;99.90;;;;;;5094025;28;20405;-60
2021/12/05 13:00:42;;;;;;;3.50;2.15;;;5.80;99.90;;;;;;5093824;28;20425;-61
2021/12/05 13:03:39;;;;;;;3.55;1.23;;;5.90;99.90;;;;;;5102535;22;20440;-60
2021/12/05 13:11:55;;;;;;;2.05;1.30;;;6.00;99.90;;;;;;5053021;28;20444;-60
2021/12/05 13:14:23;;;;;;;2.67;1.30;;;5.90;99.90;;;;;;5053249;28;20952;-60
2021/12/05 13:16:50;;;;;;;2.58;1.48;;;6.20;99.90;;;;;;5053339;28;20413;-59
2021/12/05 13:19:22;;;;;;;2.92;1.55;;;6.10;99.90;;;;;;5053225;28;20413;-61
2021/12/05 13:21:52;;;;;;;4.15;1.60;;;6.00;99.90;;;;;;5052977;28;20418;-61
2021/12/05 13:24:25;;;;;;;2.80;1.42;;;5.90;99.90;;;;;;5052965;28;20413;-61
2021/12/05 13:27:00;;;;;;;4.35;1.50;;;5.80;99.90;;;;;;5053450;28;20439;-60
2021/12/05 13:29:27;;;;;;;3.42;1.52;;;6.00;99.90;;;;;;5053116;28;20951;-61
2021/12/05 13:31:57;;;;;;;2.35;1.20;;;6.10;99.90;;;;;;5052821;28;20409;-60
2021/12/05 13:34:45;;;;;;;3.00;1.38;;;6.20;99.90;;;;;;5052864;28;20465;-60
2021/12/05 13:37:24;;;;;;;2.65;1.30;;;5.90;99.90;;;;;;5053141;28;20466;-60
2021/12/05 13:39:53;;;;;;;2.30;1.30;;;5.90;99.90;;;;;;5052856;28;20777;-61
2021/12/05 13:42:25;;;;;;;3.58;1.63;;;5.80;99.90;;;;;;5052706;28;20428;-57
2021/12/05 13:45:16;;;;;;;4.15;1.85;;;5.90;99.90;;;;;;5052706;28;20484;-58
2021/12/05 13:47:46;;;;;;;3.67;1.67;;;5.80;99.90;;;;;;5052923;28;20413;-56
2021/12/05 13:50:45;;;;;;;5.40;1.63;;;5.80;99.90;;;;;;5052861;28;20416;-58
2021/12/05 13:53:36;;;;;;;2.47;1.48;;;5.70;99.90;;;;;;5007885;28;20421;-59
2021/12/05 13:56:24;;;;;;;4.28;1.45;;;5.70;99.90;;;;;;5053041;28;20413;-59
2021/12/05 13:58:59;;;;;;;2.97;1.48;;;5.70;99.90;;;;;;5052602;28;20413;-59
2021/12/05 14:01:29;;;;;;;4.77;1.83;;;5.90;99.90;;;;;;5051194;28;20852;-60
2021/12/05 14:04:00;;;;;;;3.25;1.80;;;6.10;99.90;;;;;;5052207;28;20508;-58
2021/12/05 14:06:53;;;;;;;4.25;1.90;;;6.20;99.90;;;;;;5053204;28;20447;-59
2021/12/05 14:09:23;;;;;;;4.38;1.70;;;6.20;99.90;;;;;;5052664;28;20420;-59
2021/12/05 14:11:54;;;;;;;3.80;1.55;;;6.20;99.90;;;;;;5052396;28;20894;-58
2021/12/05 14:14:25;;;;;;;3.97;1.73;;;6.20;99.90;;;;;;5052214;28;20470;-57
2021/12/05 14:16:53;;;;;;;8.55;3.58;;;6.10;99.90;;;;;;5052763;28;20417;-57
2021/12/05 14:19:23;;;;;;;3.35;1.52;;;6.20;99.90;;;;;;5052625;28;20413;-57
2021/12/05 14:21:52;;;;;;;3.80;2.25;;;6.40;99.90;;;;;;5052183;28;20471;-57
2021/12/05 14:24:22;;;;;;;3.05;1.75;;;6.40;99.90;;;;;;5052332;28;20416;-57
2021/12/05 14:26:50;;;;;;;3.40;1.70;;;6.30;99.90;;;;;;5052064;28;20471;-57
2021/12/05 14:29:19;;;;;;;5.25;2.17;;;6.40;99.90;;;;;;5052540;28;20459;-57
2021/12/05 14:31:51;;;;;;;3.10;1.63;;;6.50;99.90;;;;;;5052001;28;20417;-57
2021/12/05 14:34:19;;;;;;;2.45;1.38;;;6.50;99.90;;;;;;5052301;28;20425;-57
2021/12/05 14:36:50;;;;;;;2.50;1.50;;;6.40;99.90;;;;;;5052007;28;20487;-57
2021/12/05 14:39:22;;;;;;;3.00;2.20;;;6.40;99.90;;;;;;5051905;28;20417;-57
2021/12/05 14:41:53;;;;;;;4.28;2.58;;;6.20;99.90;;;;;;5051920;28;20418;-58
2021/12/05 14:44:21;;;;;;;3.83;2.33;;;6.00;99.90;;;;;;5052081;28;20422;-57
2021/12/05 14:47:05;;;;;;;3.58;1.90;;;6.20;99.90;;;;;;5052128;28;20452;-57
2021/12/05 14:49:34;;;;;;;4.65;2.28;;;6.30;99.90;;;;;;5051885;28;20421;-57
2021/12/05 14:52:02;;;;;;;5.32;2.22;;;6.30;99.90;;;;;;5051498;28;20936;-58
2021/12/05 14:54:33;;;;;;;3.88;2.10;;;6.30;99.90;;;;;;5051819;28;20782;-56
2021/12/05 14:57:04;;;;;;;3.13;2.10;;;6.40;99.90;;;;;;5051905;28;20517;-58
2021/12/05 14:59:31;;;;;;;3.87;1.50;;;6.50;99.90;;;;;;5051700;28;20786;-58
2021/12/05 15:01:58;;;;;;;2.97;1.92;;;6.40;99.90;;;;;;5051644;28;20829;-59
2021/12/05 15:04:31;;;;;;;3.55;2.22;;;6.30;99.90;;;;;;5043599;28;20414;-66
2021/12/05 15:06:58;;;;;;;3.15;1.90;;;6.10;99.90;;;;;;5051331;28;20405;-64
2021/12/05 15:09:28;;;;;;;2.78;1.75;;;6.10;99.90;;;;;;5050935;28;20413;-65
2021/12/05 15:11:58;;;;;;;3.53;1.80;;;6.10;99.90;;;;;;5050776;28;20805;-66
2021/12/05 15:14:27;;;;;;;5.22;2.17;;;6.40;99.90;;;;;;5051164;28;20432;-66
2021/12/05 15:16:58;;;;;;;2.92;1.52;;;6.60;99.90;;;;;;5050141;28;21214;-66
2021/12/05 15:19:25;;;;;;;4.23;1.87;;;6.70;99.90;;;;;;5051349;28;20946;-66
2021/12/05 15:21:53;;;;;;;2.88;1.63;;;6.90;99.90;;;;;;5050649;28;20417;-66
2021/12/05 15:24:22;;;;;;;7.17;2.10;;;7.10;99.90;;;;;;5052039;28;20221;-65
2021/12/05 15:26:49;;;;;;;3.70;1.77;;;7.10;99.90;;;;;;5052160;28;20205;-65
2021/12/05 15:29:16;;;;;;;4.57;1.70;;;6.70;99.90;;;;;;5051958;28;20214;-58
2021/12/05 15:31:44;;;;;;;2.53;1.67;;;6.80;99.90;;;;;;5051796;28;20235;-58
2021/12/05 15:34:30;;;;;;;3.07;1.93;;;6.60;99.90;;;;;;5051571;28;20275;-60
2021/12/05 15:36:59;;;;;;;4.17;1.60;;;6.40;99.90;;;;;;5058232;28;20209;-59
2021/12/05 15:39:30;;;;;;;4.50;1.77;;;6.00;99.90;;;;;;5071909;28;20207;-59
2021/12/05 15:41:58;;;;;;;2.40;1.50;;;5.90;99.90;;;;;;5071451;28;20209;-61
2021/12/05 15:44:33;;;;;;;5.13;1.90;;;5.90;99.90;;;;;;5070896;28;20886;-60
2021/12/05 15:47:06;;;;;;;2.77;1.97;;;5.80;99.90;;;;;;5045747;28;20274;-61
2021/12/05 15:49:53;;;;;;;3.33;1.90;;;5.60;99.90;;;;;;5051757;28;20208;-60
2021/12/05 15:52:26;;;;;;;2.33;1.67;;;5.50;99.90;;;;;;5050512;28;20202;-59
2021/12/05 15:54:53;;;;;;;3.57;1.40;;;5.50;99.90;;;;;;5051431;28;20232;-59
2021/12/05 15:57:30;;;;;;;3.30;1.67;;;5.50;99.90;;;;;;5051700;28;20207;-60
2021/12/05 15:59:58;;;;;;;6.17;1.80;;;5.40;99.90;;;;;;5051550;28;20215;-59
2021/12/05 16:02:25;;;;;;;4.03;1.90;;;5.30;99.90;;;;;;5051223;28;20214;-59
2021/12/05 16:04:52;;;;;;;4.63;1.80;;;5.20;99.90;;;;;;5050905;28;20248;-59
2021/12/05 16:07:20;;;;;;;4.23;1.70;;;5.10;99.90;;;;;;5055109;28;20561;-59
2021/12/05 16:09:48;;;;;;;2.33;1.43;;;5.20;99.90;;;;;;5063063;28;20208;-59
2021/12/05 16:12:17;;;;;;;2.93;1.80;;;5.20;99.90;;;;;;5051216;28;20581;-59
2021/12/05 16:14:46;;;;;;;3.10;2.00;;;5.20;99.90;;;;;;5050995;28;20227;-59
2021/12/05 16:17:15;;;;;;;3.20;1.90;;;5.10;99.90;;;;;;5051595;28;20215;-58
2021/12/05 16:20:21;;;;;;;4.10;2.07;;;5.10;99.90;;;;;;5051559;28;20206;-58
2021/12/05 16:23:16;;;;;;;4.50;2.10;;;5.20;99.90;;;;;;5050904;28;20209;-58
2021/12/05 16:25:57;;;;;;;3.47;2.00;;;5.20;99.90;;;;;;5051074;28;20198;-59
2021/12/05 16:28:26;;;;;;;2.70;1.73;;;5.30;99.90;;;;;;5055398;28;20256;-59
2021/12/05 16:30:59;;;;;;;3.90;2.37;;;5.30;99.90;;;;;;5054479;28;20251;-60
2021/12/05 16:33:29;;;;;;;4.50;2.70;;;5.30;99.90;;;;;;5054856;28;20228;-59
2021/12/05 16:35:58;;;;;;;4.47;2.10;;;5.30;99.90;;;;;;5054853;28;20704;-59
2021/12/05 16:38:32;;;;;;;3.33;1.93;;;5.40;99.90;;;;;;5054892;28;20692;-61
2021/12/05 16:41:17;;;;;;;5.10;3.10;;;5.30;99.90;;;;;;5055350;28;20737;-61
2021/12/05 16:43:57;;;;;;;4.97;2.70;;;5.00;99.90;;;;;;5053717;28;20301;-59
2021/12/05 16:46:28;;;;;;;4.97;2.73;;;4.90;1.00;;;;;;5054998;28;20199;-61
2021/12/05 16:48:56;;;;;;;4.80;3.37;;;4.70;1.00;;;;;;5055612;28;20253;-61
2021/12/05 16:51:29;;;;;;;5.03;3.10;;;4.70;1.00;;;;;;5055313;28;20260;-61
2021/12/05 16:54:02;;;;;;;3.97;3.10;;;4.70;1.00;;;;;;5055362;28;20235;-61
2021/12/05 16:56:46;;;;;;;4.07;3.43;;;4.60;1.00;;;;;;5055078;28;20233;-61
2021/12/05 16:59:17;;;;;;;4.50;3.30;;;4.60;1.00;;;;;;5054351;28;20209;-60
2021/12/05 17:01:44;;;;;;;5.27;3.47;;;4.50;1.00;;;;;;5054850;28;20609;-57
2021/12/05 17:04:11;;;;;;;5.73;4.40;;;4.50;1.00;;;;;;5054696;28;20233;-59
2021/12/05 17:06:46;;;;;;;6.20;4.40;;;4.40;1.00;;;;;;5054756;28;20207;-59
2021/12/05 17:09:14;;;;;;;9.30;4.40;;;4.40;1.00;;;;;;5054518;28;20233;-58
2021/12/05 17:11:43;;;;;;;5.07;3.83;;;4.40;1.00;;;;;;5049122;28;20658;-59
2021/12/05 17:14:23;;;;;;;7.77;4.50;;;4.40;1.00;;;;;;5065762;28;20217;-59
2021/12/05 17:16:50;;;;;;;6.47;4.43;;;4.40;1.00;;;;;;5074918;28;20212;-59
2021/12/05 17:19:22;;;;;;;7.80;4.67;;;4.30;1.00;;;;;;5074619;28;20454;-57